TimeEDT,TemperatureF,Dew PointF,Humidity,Sea Level PressureIn,VisibilityMPH,Wind Direction,Wind SpeedMPH,Gust SpeedMPH,PrecipitationIn,Events,Conditions,WindDirDegrees,DateUTC
12:15 AM,23.9,12.7,62,30.11,10.0,Calm,Calm,-,N/A,,Overcast,0,2013-03-19 04:15:00
12:35 AM,23.9,12.7,62,30.09,10.0,SE,4.6,-,N/A,,Overcast,130,2013-03-19 04:35:00
1:15 AM,26.4,8.4,47,30.07,10.0,SSE,4.6,-,N/A,,Overcast,150,2013-03-19 05:15:00
1:35 AM,26.4,7.3,45,30.05,10.0,Calm,Calm,-,N/A,,Overcast,0,2013-03-19 05:35:00
1:55 AM,26.4,6.8,43,30.05,10.0,Calm,Calm,-,N/A,,Overcast,0,2013-03-19 05:55:00
2:15 AM,27.5,5.4,39,30.05,10.0,South,8.1,-,N/A,,Overcast,190,2013-03-19 06:15:00
2:35 AM,27.7,10.8,49,30.04,10.0,South,10.4,16.1,N/A,,Overcast,180,2013-03-19 06:35:00
2:55 AM,25.9,16.9,69,30.03,7.0,South,8.1,16.1,N/A,Snow,Light Snow,190,2013-03-19 06:55:00
3:15 AM,24.8,19.8,81,30.03,2.0,South,9.2,-,N/A,Snow,Light Snow,180,2013-03-19 07:15:00
3:35 AM,24.8,20.3,83,30.02,1.5,SSE,6.9,-,N/A,Snow,Light Snow,160,2013-03-19 07:35:00
3:55 AM,24.4,21.0,87,30.01,1.0,SSE,4.6,-,N/A,Snow,Snow,160,2013-03-19 07:55:00
4:15 AM,24.3,21.2,88,30.00,0.8,SSE,5.8,-,N/A,Snow,Snow,150,2013-03-19 08:15:00
4:35 AM,24.1,21.0,88,30.00,1.0,SSE,6.9,-,N/A,Snow,Snow,150,2013-03-19 08:35:00
4:55 AM,23.9,21.2,89,29.99,1.0,SSE,4.6,-,N/A,Snow,Snow,150,2013-03-19 08:55:00
5:15 AM,23.9,21.2,89,29.98,1.5,SE,3.5,-,N/A,Snow,Light Snow,140,2013-03-19 09:15:00
5:35 AM,23.9,21.2,89,29.97,1.0,SE,3.5,-,N/A,Snow,Snow,140,2013-03-19 09:35:00
5:55 AM,23.9,21.2,89,29.96,1.0,SE,4.6,-,N/A,Snow,Snow,140,2013-03-19 09:55:00
6:15 AM,24.3,21.4,89,29.96,0.8,SSE,4.6,-,N/A,Snow,Snow,160,2013-03-19 10:15:00
6:35 AM,24.3,21.6,89,29.96,1.2,South,3.5,-,N/A,Snow,Light Snow,170,2013-03-19 10:35:00
6:55 AM,24.3,21.6,89,29.95,1.2,SSE,3.5,-,N/A,Snow,Snow,160,2013-03-19 10:55:00
7:15 AM,24.3,21.6,89,29.95,1.0,Calm,Calm,-,N/A,Snow,Light Snow,0,2013-03-19 11:15:00
7:55 AM,25.2,22.1,88,29.93,1.5,SSE,5.8,-,N/A,Snow,Light Snow,150,2013-03-19 11:55:00
8:15 AM,25.2,22.5,89,29.92,1.0,SSE,3.5,-,N/A,Snow,Light Snow,150,2013-03-19 12:15:00
8:35 AM,25.5,22.6,89,29.91,1.0,SSE,5.8,-,N/A,Snow,Light Snow,150,2013-03-19 12:35:00
8:55 AM,26.2,23.0,88,29.91,1.8,SSE,4.6,-,N/A,Snow,Light Snow,160,2013-03-19 12:55:00
9:15 AM,26.6,23.0,86,29.90,2.0,SSE,4.6,-,N/A,Snow,Light Snow,150,2013-03-19 13:15:00
9:35 AM,27.0,23.4,86,29.89,4.0,SE,4.6,-,N/A,Snow,Light Snow,140,2013-03-19 13:35:00
9:55 AM,27.5,23.0,83,29.88,7.0,SE,4.6,-,N/A,Snow,Light Snow,140,2013-03-19 13:55:00
10:15 AM,27.9,22.5,80,29.87,7.0,SSE,8.1,-,N/A,Snow,Light Snow,150,2013-03-19 14:15:00
10:35 AM,28.0,22.8,81,29.87,2.0,SE,5.8,-,N/A,Snow,Light Snow,140,2013-03-19 14:35:00
10:55 AM,27.9,23.0,82,29.87,1.8,SE,4.6,-,N/A,Snow,Light Snow,140,2013-03-19 14:55:00
11:15 AM,27.9,23.5,84,29.86,1.0,ESE,5.8,-,N/A,Snow,Light Snow,120,2013-03-19 15:15:00
11:35 AM,27.5,23.9,86,29.86,0.8,SE,5.8,-,N/A,Snow,Light Snow,130,2013-03-19 15:35:00
11:55 AM,27.3,23.9,87,29.86,0.5,SE,8.1,-,N/A,Snow,Light Snow,130,2013-03-19 15:55:00
12:15 PM,27.3,24.3,88,29.85,0.2,SE,8.1,-,N/A,Snow,Heavy Snow,130,2013-03-19 16:15:00
12:35 PM,27.5,24.8,90,29.85,0.2,Calm,Calm,-,N/A,Snow,Heavy Snow,0,2013-03-19 16:35:00
12:55 PM,27.3,24.6,90,29.84,0.2,East,5.8,-,N/A,Snow,Snow,80,2013-03-19 16:55:00
1:15 PM,27.5,24.6,89,29.84,0.5,East,5.8,-,N/A,Snow,Snow,100,2013-03-19 17:15:00
1:35 PM,27.3,24.4,89,29.83,0.5,East,6.9,-,N/A,Snow,Snow,100,2013-03-19 17:35:00
1:55 PM,27.3,24.4,89,29.82,0.5,ESE,9.2,-,N/A,Snow,Snow,120,2013-03-19 17:55:00
2:15 PM,27.0,23.9,88,29.81,0.5,ESE,6.9,-,N/A,Snow,Snow,120,2013-03-19 18:15:00
2:35 PM,27.0,24.1,89,29.80,0.2,ESE,4.6,-,N/A,Snow,Snow,120,2013-03-19 18:35:00
2:55 PM,27.1,24.4,90,29.77,0.2,East,3.5,-,N/A,Snow,Snow,100,2013-03-19 18:55:00
3:15 PM,26.6,23.9,90,29.77,0.5,Calm,Calm,-,N/A,Snow,Snow,0,2013-03-19 19:15:00
3:35 PM,26.6,23.9,90,29.77,0.8,ENE,5.8,-,N/A,Snow,Light Snow,70,2013-03-19 19:35:00
3:55 PM,26.2,23.0,88,29.77,0.5,East,6.9,-,N/A,Snow,Light Snow,90,2013-03-19 19:55:00
4:15 PM,25.7,22.6,88,29.76,0.8,East,6.9,-,N/A,Snow,Light Snow,90,2013-03-19 20:15:00
4:35 PM,25.5,21.9,86,29.74,1.0,East,6.9,-,N/A,Snow,Light Snow,80,2013-03-19 20:35:00
4:55 PM,25.3,21.2,84,29.75,1.0,East,6.9,-,N/A,Snow,Light Snow,100,2013-03-19 20:55:00
5:15 PM,25.3,20.7,82,29.74,2.5,East,9.2,-,N/A,Snow,Light Snow,100,2013-03-19 21:15:00
5:35 PM,24.8,20.7,84,29.74,0.8,ESE,9.2,-,N/A,Snow,Light Snow,110,2013-03-19 21:35:00
5:55 PM,24.6,21.0,86,29.74,0.8,ESE,5.8,-,N/A,Snow,Light Snow,110,2013-03-19 21:55:00
6:15 PM,24.6,20.8,86,29.75,1.0,ESE,6.9,-,N/A,Snow,Light Snow,120,2013-03-19 22:15:00
6:35 PM,24.6,20.3,84,29.74,2.5,East,3.5,-,N/A,Snow,Light Snow,100,2013-03-19 22:35:00
6:55 PM,24.4,20.7,86,29.74,1.0,East,4.6,-,N/A,Snow,Light Snow,90,2013-03-19 22:55:00
7:15 PM,23.9,21.0,89,29.74,1.0,Calm,Calm,-,N/A,Snow,Snow,0,2013-03-19 23:15:00
7:35 PM,23.9,21.0,89,29.74,1.2,Calm,Calm,-,N/A,Snow,Snow,0,2013-03-19 23:35:00
7:55 PM,23.9,21.0,89,29.74,1.0,Calm,Calm,-,N/A,Snow,Snow,0,2013-03-19 23:55:00
8:15 PM,23.9,21.2,89,29.74,1.2,East,3.5,-,N/A,Snow,Light Snow,90,2013-03-20 00:15:00
8:35 PM,23.5,20.7,89,29.74,1.8,Calm,Calm,-,N/A,Snow,Light Snow,0,2013-03-20 00:35:00
8:55 PM,23.4,20.8,90,29.74,1.2,East,3.5,-,N/A,Snow,Light Snow,90,2013-03-20 00:55:00
9:15 PM,23.4,20.3,88,29.74,1.5,East,3.5,-,N/A,Snow,Light Snow,90,2013-03-20 01:15:00
9:55 PM,22.6,19.8,89,29.74,1.2,East,3.5,-,N/A,Snow,Light Snow,90,2013-03-20 01:55:00
10:15 PM,22.6,19.9,89,29.73,1.2,East,4.6,-,N/A,Snow,Light Snow,100,2013-03-20 02:15:00
10:35 PM,22.5,19.4,88,29.73,1.2,East,3.5,-,N/A,Snow,Snow,100,2013-03-20 02:35:00
10:55 PM,22.5,19.4,88,29.72,1.0,East,3.5,-,N/A,Snow,Snow,90,2013-03-20 02:55:00
11:15 PM,22.3,19.4,89,29.72,1.2,Calm,Calm,-,N/A,Snow,Snow,0,2013-03-20 03:15:00
11:35 PM,22.5,19.8,89,29.72,1.0,Calm,Calm,-,N/A,Snow,Snow,0,2013-03-20 03:35:00
11:55 PM,21.9,19.2,89,29.71,1.2,Calm,Calm,-,N/A,Snow,Light Snow,0,2013-03-20 03:55:00